This is the latest recevied weather packets stored in our database for station/object AC2JK-WX. If no packets are shown the sender has not sent any weather packets the latest 1 day(s).
| Time | Temp. | Humidity | Pressure | Rain* | Wind** | Luminosity | Snow |
|---|---|---|---|---|---|---|---|
| 1778002029 | 18.89° C | 63% | 1006 hPa | 0 mm | 4.02 m/s, 245° | - | - |
| 1778001732 | 18.89° C | 63% | 1006 hPa | 0 mm | 3.13 m/s, 245° | - | - |
| 1778001429 | 18.33° C | 65% | 1006 hPa | 0 mm | 3.13 m/s, 245° | - | - |
| 1778001130 | 18.33° C | 65% | 1006 hPa | 0 mm | 3.58 m/s, 245° | - | - |
| 1778000832 | 18.89° C | 65% | 1006 hPa | 0 mm | 2.68 m/s, 245° | - | - |
| 1778000530 | 18.33° C | 64% | 1006 hPa | 0 mm | 4.92 m/s, 245° | - | - |
| 1778000230 | 18.89° C | 62% | 1006 hPa | 0 mm | 2.68 m/s, 245° | - | - |
| 1777999930 | 19.44° C | 61% | 1006 hPa | 0 mm | 2.68 m/s, 245° | - | - |
| 1777999630 | 19.44° C | 61% | 1005 hPa | 0 mm | 2.68 m/s, 245° | - | - |
| 1777999330 | 18.89° C | 63% | 1005 hPa | 0 mm | 2.24 m/s, 245° | - | - |
| 1777999030 | 19.44° C | 61% | 1005 hPa | 0 mm | 2.68 m/s, 245° | - | - |
| 1777998730 | 19.44° C | 61% | 1005 hPa | 0 mm | 2.68 m/s, 245° | - | - |
| 1777998430 | 19.44° C | 61% | 1005 hPa | 0 mm | 4.02 m/s, 245° | - | - |
| 1777998130 | 18.89° C | 63% | 1005 hPa | 0 mm | 1.79 m/s, 245° | - | - |
| 1777997831 | 18.33° C | 64% | 1005 hPa | 0 mm | 2.68 m/s, 245° | - | - |
| 1777997530 | 18.33° C | 63% | 1005 hPa | 0 mm | 3.58 m/s, 245° | - | - |
| 1777997229 | 17.78° C | 66% | 1005 hPa | 0 mm | 2.24 m/s, 245° | - | - |
| 1777996930 | 17.22° C | 66% | 1005 hPa | 0 mm | 1.34 m/s, 245° | - | - |
| 1777996629 | 16.67° C | 67% | 1005 hPa | 0 mm | 1.34 m/s, 245° | - | - |
| 1777996330 | 16.67° C | 67% | 1005 hPa | 0 mm | 4.02 m/s, 245° | - | - |
| 1777996031 | 16.67° C | 66% | 1005 hPa | 0 mm | 1.79 m/s, 245° | - | - |
| 1777995729 | 17.22° C | 65% | 1005 hPa | 0 mm | 2.68 m/s, 245° | - | - |
| 1777995430 | 17.78° C | 64% | 1005 hPa | 0 mm | 5.81 m/s, 245° | - | - |
| 1777995130 | 17.78° C | 62% | 1005 hPa | 0 mm | 2.24 m/s, 245° | - | - |
| 1777994830 | 18.33° C | 62% | 1005 hPa | 0 mm | 3.13 m/s, 245° | - | - |
* Rain latest hour (hover to see other rain measurements)
** Current wind speed in m/s (hover to see current wind gust speed)